sensor_id;sensor_type;location;lat;lon;timestamp;temperature;humidity
83770;DHT22;73763;48.936;9.300;2024-01-30T00:01:15;3.40;94.70
83770;DHT22;73763;48.936;9.300;2024-01-30T00:03:41;3.40;94.60
83770;DHT22;73763;48.936;9.300;2024-01-30T00:06:07;3.30;94.60
83770;DHT22;73763;48.936;9.300;2024-01-30T00:08:32;3.30;94.70
83770;DHT22;73763;48.936;9.300;2024-01-30T00:10:58;3.30;94.70
83770;DHT22;73763;48.936;9.300;2024-01-30T00:13:23;3.30;94.80
83770;DHT22;73763;48.936;9.300;2024-01-30T00:15:49;3.20;95.00
83770;DHT22;73763;48.936;9.300;2024-01-30T00:18:14;3.10;95.00
83770;DHT22;73763;48.936;9.300;2024-01-30T00:20:40;3.10;95.10
83770;DHT22;73763;48.936;9.300;2024-01-30T00:23:06;3.10;95.20
83770;DHT22;73763;48.936;9.300;2024-01-30T00:25:32;3.10;95.30
83770;DHT22;73763;48.936;9.300;2024-01-30T00:27:58;3.00;95.30
83770;DHT22;73763;48.936;9.300;2024-01-30T00:30:23;3.00;95.50
83770;DHT22;73763;48.936;9.300;2024-01-30T00:32:49;2.90;95.70
83770;DHT22;73763;48.936;9.300;2024-01-30T00:35:15;2.90;95.60
83770;DHT22;73763;48.936;9.300;2024-01-30T00:37:40;2.90;95.60
83770;DHT22;73763;48.936;9.300;2024-01-30T00:40:06;2.80;95.70
83770;DHT22;73763;48.936;9.300;2024-01-30T00:42:32;2.80;95.80
83770;DHT22;73763;48.936;9.300;2024-01-30T00:44:57;2.80;95.80
83770;DHT22;73763;48.936;9.300;2024-01-30T00:47:23;2.70;95.80
83770;DHT22;73763;48.936;9.300;2024-01-30T00:49:49;2.70;96.00
83770;DHT22;73763;48.936;9.300;2024-01-30T00:52:14;2.70;96.00
83770;DHT22;73763;48.936;9.300;2024-01-30T00:54:40;2.70;96.20
83770;DHT22;73763;48.936;9.300;2024-01-30T00:57:05;2.60;96.20
83770;DHT22;73763;48.936;9.300;2024-01-30T00:59:31;2.60;96.10
83770;DHT22;73763;48.936;9.300;2024-01-30T01:01:57;2.60;96.10
83770;DHT22;73763;48.936;9.300;2024-01-30T01:04:24;2.70;96.10
83770;DHT22;73763;48.936;9.300;2024-01-30T01:06:50;2.70;95.80
83770;DHT22;73763;48.936;9.300;2024-01-30T01:09:15;2.80;95.70
83770;DHT22;73763;48.936;9.300;2024-01-30T01:11:41;2.80;95.50
83770;DHT22;73763;48.936;9.300;2024-01-30T01:14:06;2.80;95.50
83770;DHT22;73763;48.936;9.300;2024-01-30T01:16:33;2.70;95.60
83770;DHT22;73763;48.936;9.300;2024-01-30T01:18:59;2.70;95.60
83770;DHT22;73763;48.936;9.300;2024-01-30T01:21:24;2.70;95.70
83770;DHT22;73763;48.936;9.300;2024-01-30T01:23:49;2.60;95.80
83770;DHT22;73763;48.936;9.300;2024-01-30T01:26:15;2.60;95.90
83770;DHT22;73763;48.936;9.300;2024-01-30T01:28:41;2.60;95.90
83770;DHT22;73763;48.936;9.300;2024-01-30T01:31:06;2.50;96.00
83770;DHT22;73763;48.936;9.300;2024-01-30T01:33:32;2.50;96.20
83770;DHT22;73763;48.936;9.300;2024-01-30T01:35:59;2.50;96.00
83770;DHT22;73763;48.936;9.300;2024-01-30T01:38:25;2.50;96.00
83770;DHT22;73763;48.936;9.300;2024-01-30T01:40:50;2.50;95.90
83770;DHT22;73763;48.936;9.300;2024-01-30T01:43:16;2.50;95.90
83770;DHT22;73763;48.936;9.300;2024-01-30T01:45:42;2.50;95.80
83770;DHT22;73763;48.936;9.300;2024-01-30T01:48:07;2.50;95.80
83770;DHT22;73763;48.936;9.300;2024-01-30T01:50:33;2.50;95.70
83770;DHT22;73763;48.936;9.300;2024-01-30T01:52:59;2.50;95.70
83770;DHT22;73763;48.936;9.300;2024-01-30T01:55:24;2.50;95.70
83770;DHT22;73763;48.936;9.300;2024-01-30T01:57:52;2.40;95.70
83770;DHT22;73763;48.936;9.300;2024-01-30T02:00:18;2.30;95.80
83770;DHT22;73763;48.936;9.300;2024-01-30T02:02:45;2.30;96.00
83770;DHT22;73763;48.936;9.300;2024-01-30T02:05:11;2.30;95.90
83770;DHT22;73763;48.936;9.300;2024-01-30T02:07:37;2.20;96.00
83770;DHT22;73763;48.936;9.300;2024-01-30T02:10:04;2.20;96.00
83770;DHT22;73763;48.936;9.300;2024-01-30T02:12:30;2.20;96.00
83770;DHT22;73763;48.936;9.300;2024-01-30T02:14:55;2.20;96.00
83770;DHT22;73763;48.936;9.300;2024-01-30T02:17:21;2.20;95.90
83770;DHT22;73763;48.936;9.300;2024-01-30T02:19:46;2.20;95.90
83770;DHT22;73763;48.936;9.300;2024-01-30T02:22:14;2.20;95.90
83770;DHT22;73763;48.936;9.300;2024-01-30T02:24:39;2.20;95.90
83770;DHT22;73763;48.936;9.300;2024-01-30T02:27:05;2.10;95.90
83770;DHT22;73763;48.936;9.300;2024-01-30T02:29:30;2.20;96.00
83770;DHT22;73763;48.936;9.300;2024-01-30T02:31:56;2.10;96.00
83770;DHT22;73763;48.936;9.300;2024-01-30T02:34:21;2.20;96.00
83770;DHT22;73763;48.936;9.300;2024-01-30T02:36:47;2.10;95.90
83770;DHT22;73763;48.936;9.300;2024-01-30T02:39:13;2.10;96.00
83770;DHT22;73763;48.936;9.300;2024-01-30T02:41:39;2.10;96.00
83770;DHT22;73763;48.936;9.300;2024-01-30T02:44:04;2.10;96.00
83770;DHT22;73763;48.936;9.300;2024-01-30T02:46:30;2.20;96.00
83770;DHT22;73763;48.936;9.300;2024-01-30T02:48:55;2.10;95.90
83770;DHT22;73763;48.936;9.300;2024-01-30T02:51:21;2.10;96.00
83770;DHT22;73763;48.936;9.300;2024-01-30T02:53:47;2.00;96.00
83770;DHT22;73763;48.936;9.300;2024-01-30T02:56:12;2.00;96.10
83770;DHT22;73763;48.936;9.300;2024-01-30T02:58:39;2.00;96.20
83770;DHT22;73763;48.936;9.300;2024-01-30T03:01:05;1.90;96.20
83770;DHT22;73763;48.936;9.300;2024-01-30T03:03:30;1.90;96.30
83770;DHT22;73763;48.936;9.300;2024-01-30T03:05:56;1.80;96.50
83770;DHT22;73763;48.936;9.300;2024-01-30T03:08:21;1.90;96.50
83770;DHT22;73763;48.936;9.300;2024-01-30T03:10:47;1.90;96.40
83770;DHT22;73763;48.936;9.300;2024-01-30T03:13:12;1.90;96.40
83770;DHT22;73763;48.936;9.300;2024-01-30T03:15:38;1.80;96.50
83770;DHT22;73763;48.936;9.300;2024-01-30T03:18:03;1.80;96.50
83770;DHT22;73763;48.936;9.300;2024-01-30T03:20:29;1.80;96.50
83770;DHT22;73763;48.936;9.300;2024-01-30T03:22:55;1.70;96.60
83770;DHT22;73763;48.936;9.300;2024-01-30T03:25:21;1.70;96.70
83770;DHT22;73763;48.936;9.300;2024-01-30T03:27:46;1.60;96.70
83770;DHT22;73763;48.936;9.300;2024-01-30T03:30:12;1.50;97.10
83770;DHT22;73763;48.936;9.300;2024-01-30T03:32:37;1.50;97.40
83770;DHT22;73763;48.936;9.300;2024-01-30T03:35:03;1.50;97.40
83770;DHT22;73763;48.936;9.300;2024-01-30T03:37:29;1.50;97.30
83770;DHT22;73763;48.936;9.300;2024-01-30T03:39:54;1.50;97.30
83770;DHT22;73763;48.936;9.300;2024-01-30T03:42:20;1.70;97.20
83770;DHT22;73763;48.936;9.300;2024-01-30T03:44:45;1.70;96.90
83770;DHT22;73763;48.936;9.300;2024-01-30T03:47:11;1.90;96.90
83770;DHT22;73763;48.936;9.300;2024-01-30T03:49:36;2.00;96.10
83770;DHT22;73763;48.936;9.300;2024-01-30T03:52:02;2.20;95.80
83770;DHT22;73763;48.936;9.300;2024-01-30T03:54:28;2.30;95.50
83770;DHT22;73763;48.936;9.300;2024-01-30T03:56:53;2.30;95.30
83770;DHT22;73763;48.936;9.300;2024-01-30T03:59:19;2.40;95.20
83770;DHT22;73763;48.936;9.300;2024-01-30T04:01:46;2.40;95.10
83770;DHT22;73763;48.936;9.300;2024-01-30T04:04:12;2.40;95.00
83770;DHT22;73763;48.936;9.300;2024-01-30T04:06:37;2.30;95.10
83770;DHT22;73763;48.936;9.300;2024-01-30T04:09:03;2.20;95.30
83770;DHT22;73763;48.936;9.300;2024-01-30T04:11:29;2.10;95.50
83770;DHT22;73763;48.936;9.300;2024-01-30T04:13:54;2.00;95.70
83770;DHT22;73763;48.936;9.300;2024-01-30T04:16:20;2.00;95.90
83770;DHT22;73763;48.936;9.300;2024-01-30T04:18:46;2.00;95.90
83770;DHT22;73763;48.936;9.300;2024-01-30T04:21:11;2.00;95.90
83770;DHT22;73763;48.936;9.300;2024-01-30T04:23:40;2.00;96.00
83770;DHT22;73763;48.936;9.300;2024-01-30T04:26:06;2.10;95.80
83770;DHT22;73763;48.936;9.300;2024-01-30T04:28:31;2.10;95.80
83770;DHT22;73763;48.936;9.300;2024-01-30T04:30:57;2.10;95.70
83770;DHT22;73763;48.936;9.300;2024-01-30T04:33:22;2.00;95.90
83770;DHT22;73763;48.936;9.300;2024-01-30T04:35:49;2.00;96.00
83770;DHT22;73763;48.936;9.300;2024-01-30T04:38:14;2.00;96.10
83770;DHT22;73763;48.936;9.300;2024-01-30T04:40:40;1.90;96.20
83770;DHT22;73763;48.936;9.300;2024-01-30T04:43:06;1.80;96.30
83770;DHT22;73763;48.936;9.300;2024-01-30T04:45:31;1.70;96.50
83770;DHT22;73763;48.936;9.300;2024-01-30T04:47:57;1.50;96.70
83770;DHT22;73763;48.936;9.300;2024-01-30T04:50:23;1.40;97.10
83770;DHT22;73763;48.936;9.300;2024-01-30T04:52:48;1.20;97.40
83770;DHT22;73763;48.936;9.300;2024-01-30T04:55:14;1.20;97.50
83770;DHT22;73763;48.936;9.300;2024-01-30T04:57:40;1.20;97.70
83770;DHT22;73763;48.936;9.300;2024-01-30T05:00:06;1.20;97.80
83770;DHT22;73763;48.936;9.300;2024-01-30T05:02:32;1.20;97.90
83770;DHT22;73763;48.936;9.300;2024-01-30T05:04:57;1.10;97.90
83770;DHT22;73763;48.936;9.300;2024-01-30T05:07:24;1.10;97.90
83770;DHT22;73763;48.936;9.300;2024-01-30T05:09:50;1.10;98.10
83770;DHT22;73763;48.936;9.300;2024-01-30T05:12:15;1.10;98.30
83770;DHT22;73763;48.936;9.300;2024-01-30T05:14:41;1.10;98.40
83770;DHT22;73763;48.936;9.300;2024-01-30T05:17:07;1.10;98.40
83770;DHT22;73763;48.936;9.300;2024-01-30T05:19:32;1.10;98.40
83770;DHT22;73763;48.936;9.300;2024-01-30T05:21:58;1.10;98.30
83770;DHT22;73763;48.936;9.300;2024-01-30T05:24:23;1.10;98.40
83770;DHT22;73763;48.936;9.300;2024-01-30T05:26:49;1.10;98.30
83770;DHT22;73763;48.936;9.300;2024-01-30T05:29:14;1.10;98.30
83770;DHT22;73763;48.936;9.300;2024-01-30T05:31:40;1.10;98.20
83770;DHT22;73763;48.936;9.300;2024-01-30T05:34:05;1.10;98.20
83770;DHT22;73763;48.936;9.300;2024-01-30T05:36:31;1.00;98.20
83770;DHT22;73763;48.936;9.300;2024-01-30T05:38:56;0.90;98.30
83770;DHT22;73763;48.936;9.300;2024-01-30T05:41:22;1.00;98.50
83770;DHT22;73763;48.936;9.300;2024-01-30T05:43:47;1.00;98.50
83770;DHT22;73763;48.936;9.300;2024-01-30T05:46:13;1.10;98.60
83770;DHT22;73763;48.936;9.300;2024-01-30T05:48:38;1.20;98.50
83770;DHT22;73763;48.936;9.300;2024-01-30T05:51:04;1.20;98.30
83770;DHT22;73763;48.936;9.300;2024-01-30T05:53:30;1.30;98.20
83770;DHT22;73763;48.936;9.300;2024-01-30T05:55:55;1.30;98.10
83770;DHT22;73763;48.936;9.300;2024-01-30T05:58:21;1.30;98.10
83770;DHT22;73763;48.936;9.300;2024-01-30T06:00:46;1.30;98.00
83770;DHT22;73763;48.936;9.300;2024-01-30T06:03:12;1.30;97.90
83770;DHT22;73763;48.936;9.300;2024-01-30T06:05:37;1.30;97.90
83770;DHT22;73763;48.936;9.300;2024-01-30T06:08:03;1.30;97.90
83770;DHT22;73763;48.936;9.300;2024-01-30T06:10:28;1.40;97.80
83770;DHT22;73763;48.936;9.300;2024-01-30T06:12:54;1.30;97.70
83770;DHT22;73763;48.936;9.300;2024-01-30T06:15:19;1.40;97.60
83770;DHT22;73763;48.936;9.300;2024-01-30T06:17:45;1.50;97.50
83770;DHT22;73763;48.936;9.300;2024-01-30T06:20:11;1.40;97.40
83770;DHT22;73763;48.936;9.300;2024-01-30T06:22:38;1.40;97.50
83770;DHT22;73763;48.936;9.300;2024-01-30T06:25:04;1.40;97.60
83770;DHT22;73763;48.936;9.300;2024-01-30T06:27:30;1.50;97.40
83770;DHT22;73763;48.936;9.300;2024-01-30T06:29:55;1.50;97.30
83770;DHT22;73763;48.936;9.300;2024-01-30T06:32:21;1.50;97.30
83770;DHT22;73763;48.936;9.300;2024-01-30T06:34:46;1.40;97.30
83770;DHT22;73763;48.936;9.300;2024-01-30T06:37:12;1.40;97.40
83770;DHT22;73763;48.936;9.300;2024-01-30T06:39:37;1.40;97.40
83770;DHT22;73763;48.936;9.300;2024-01-30T06:42:04;1.50;97.40
83770;DHT22;73763;48.936;9.300;2024-01-30T06:44:29;1.60;97.30
83770;DHT22;73763;48.936;9.300;2024-01-30T06:46:55;1.50;97.20
83770;DHT22;73763;48.936;9.300;2024-01-30T06:49:20;1.50;97.10
83770;DHT22;73763;48.936;9.300;2024-01-30T06:51:46;1.50;97.10
83770;DHT22;73763;48.936;9.300;2024-01-30T06:54:11;1.50;97.20
83770;DHT22;73763;48.936;9.300;2024-01-30T06:56:37;1.50;97.30
83770;DHT22;73763;48.936;9.300;2024-01-30T06:59:02;1.60;97.20
83770;DHT22;73763;48.936;9.300;2024-01-30T07:01:31;1.60;97.20
83770;DHT22;73763;48.936;9.300;2024-01-30T07:03:57;1.60;97.10
83770;DHT22;73763;48.936;9.300;2024-01-30T07:06:23;1.60;97.10
83770;DHT22;73763;48.936;9.300;2024-01-30T07:08:51;1.70;97.00
83770;DHT22;73763;48.936;9.300;2024-01-30T07:11:20;1.60;96.90
83770;DHT22;73763;48.936;9.300;2024-01-30T07:13:46;1.70;97.10
83770;DHT22;73763;48.936;9.300;2024-01-30T07:16:11;1.70;96.90
83770;DHT22;73763;48.936;9.300;2024-01-30T07:18:37;1.80;96.90
83770;DHT22;73763;48.936;9.300;2024-01-30T07:21:03;1.90;96.80
83770;DHT22;73763;48.936;9.300;2024-01-30T07:23:28;2.00;96.70
83770;DHT22;73763;48.936;9.300;2024-01-30T07:25:54;2.00;96.50
83770;DHT22;73763;48.936;9.300;2024-01-30T07:28:19;2.10;96.30
83770;DHT22;73763;48.936;9.300;2024-01-30T07:30:45;2.10;96.20
83770;DHT22;73763;48.936;9.300;2024-01-30T07:33:10;2.10;96.30
83770;DHT22;73763;48.936;9.300;2024-01-30T07:35:36;2.20;96.30
83770;DHT22;73763;48.936;9.300;2024-01-30T07:38:02;2.30;96.20
83770;DHT22;73763;48.936;9.300;2024-01-30T07:40:29;2.30;96.00
83770;DHT22;73763;48.936;9.300;2024-01-30T07:42:54;2.40;96.00
83770;DHT22;73763;48.936;9.300;2024-01-30T07:45:20;2.60;95.60
83770;DHT22;73763;48.936;9.300;2024-01-30T07:47:45;2.70;95.10
83770;DHT22;73763;48.936;9.300;2024-01-30T07:50:11;2.90;94.90
83770;DHT22;73763;48.936;9.300;2024-01-30T07:52:37;3.00;94.60
83770;DHT22;73763;48.936;9.300;2024-01-30T07:55:03;3.10;94.50
83770;DHT22;73763;48.936;9.300;2024-01-30T07:57:28;3.20;94.30
83770;DHT22;73763;48.936;9.300;2024-01-30T07:59:57;3.30;94.20
83770;DHT22;73763;48.936;9.300;2024-01-30T08:02:22;3.60;93.90
83770;DHT22;73763;48.936;9.300;2024-01-30T08:04:48;3.70;93.60
83770;DHT22;73763;48.936;9.300;2024-01-30T08:07:13;3.80;93.30
83770;DHT22;73763;48.936;9.300;2024-01-30T08:09:39;3.80;93.00
83770;DHT22;73763;48.936;9.300;2024-01-30T08:12:04;3.90;92.90
83770;DHT22;73763;48.936;9.300;2024-01-30T08:14:30;3.80;93.00
83770;DHT22;73763;48.936;9.300;2024-01-30T08:16:56;3.90;93.00
83770;DHT22;73763;48.936;9.300;2024-01-30T08:19:21;4.10;92.90
83770;DHT22;73763;48.936;9.300;2024-01-30T08:21:46;4.40;92.00
83770;DHT22;73763;48.936;9.300;2024-01-30T08:24:12;4.80;91.30
83770;DHT22;73763;48.936;9.300;2024-01-30T08:26:38;5.30;90.70
83770;DHT22;73763;48.936;9.300;2024-01-30T08:29:03;5.80;89.50
83770;DHT22;73763;48.936;9.300;2024-01-30T08:31:29;6.30;87.20
83770;DHT22;73763;48.936;9.300;2024-01-30T08:33:54;6.60;85.50
83770;DHT22;73763;48.936;9.300;2024-01-30T08:36:20;6.80;84.40
83770;DHT22;73763;48.936;9.300;2024-01-30T08:38:46;6.70;84.70
83770;DHT22;73763;48.936;9.300;2024-01-30T08:41:11;6.70;85.50
83770;DHT22;73763;48.936;9.300;2024-01-30T08:43:37;6.80;85.20
83770;DHT22;73763;48.936;9.300;2024-01-30T08:46:03;7.30;84.30
83770;DHT22;73763;48.936;9.300;2024-01-30T08:48:29;7.90;81.50
83770;DHT22;73763;48.936;9.300;2024-01-30T08:50:54;8.50;78.80
83770;DHT22;73763;48.936;9.300;2024-01-30T08:53:20;8.80;77.90
83770;DHT22;73763;48.936;9.300;2024-01-30T08:55:45;9.10;76.30
83770;DHT22;73763;48.936;9.300;2024-01-30T08:58:11;9.60;75.00
83770;DHT22;73763;48.936;9.300;2024-01-30T09:00:37;10.00;72.00
83770;DHT22;73763;48.936;9.300;2024-01-30T09:03:03;10.50;69.10
83770;DHT22;73763;48.936;9.300;2024-01-30T09:05:28;10.90;67.60
83770;DHT22;73763;48.936;9.300;2024-01-30T09:07:54;11.20;65.80
83770;DHT22;73763;48.936;9.300;2024-01-30T09:10:20;11.50;64.00
83770;DHT22;73763;48.936;9.300;2024-01-30T09:12:45;11.60;62.90
83770;DHT22;73763;48.936;9.300;2024-01-30T09:15:11;11.50;63.20
83770;DHT22;73763;48.936;9.300;2024-01-30T09:17:36;11.40;62.60
83770;DHT22;73763;48.936;9.300;2024-01-30T09:20:02;11.50;62.50
83770;DHT22;73763;48.936;9.300;2024-01-30T09:22:28;11.70;63.90
83770;DHT22;73763;48.936;9.300;2024-01-30T09:24:53;11.80;62.90
83770;DHT22;73763;48.936;9.300;2024-01-30T09:27:19;12.00;61.40
83770;DHT22;73763;48.936;9.300;2024-01-30T09:29:44;11.90;61.90
83770;DHT22;73763;48.936;9.300;2024-01-30T09:32:10;11.70;62.50
83770;DHT22;73763;48.936;9.300;2024-01-30T09:34:35;11.50;63.10
83770;DHT22;73763;48.936;9.300;2024-01-30T09:37:01;11.60;63.30
83770;DHT22;73763;48.936;9.300;2024-01-30T09:39:26;12.20;61.30
83770;DHT22;73763;48.936;9.300;2024-01-30T09:42:18;12.70;58.90
83770;DHT22;73763;48.936;9.300;2024-01-30T09:44:47;13.70;56.50
83770;DHT22;73763;48.936;9.300;2024-01-30T09:47:16;14.70;54.10
83770;DHT22;73763;48.936;9.300;2024-01-30T09:49:43;15.90;50.60
83770;DHT22;73763;48.936;9.300;2024-01-30T09:52:10;16.80;47.90
83770;DHT22;73763;48.936;9.300;2024-01-30T09:54:36;16.90;46.80
83770;DHT22;73763;48.936;9.300;2024-01-30T09:57:04;16.50;47.20
83770;DHT22;73763;48.936;9.300;2024-01-30T09:59:29;16.20;48.70
83770;DHT22;73763;48.936;9.300;2024-01-30T10:01:55;15.70;49.80
83770;DHT22;73763;48.936;9.300;2024-01-30T10:04:21;15.50;50.00
83770;DHT22;73763;48.936;9.300;2024-01-30T10:06:47;15.20;50.60
83770;DHT22;73763;48.936;9.300;2024-01-30T10:09:13;14.70;51.10
83770;DHT22;73763;48.936;9.300;2024-01-30T10:11:39;14.60;51.10
83770;DHT22;73763;48.936;9.300;2024-01-30T10:14:04;14.60;51.80
83770;DHT22;73763;48.936;9.300;2024-01-30T10:16:30;14.80;52.40
83770;DHT22;73763;48.936;9.300;2024-01-30T10:18:55;15.40;51.80
83770;DHT22;73763;48.936;9.300;2024-01-30T10:21:21;16.00;50.50
83770;DHT22;73763;48.936;9.300;2024-01-30T10:23:47;16.50;48.80
83770;DHT22;73763;48.936;9.300;2024-01-30T10:26:12;16.60;48.10
83770;DHT22;73763;48.936;9.300;2024-01-30T10:28:38;16.50;47.70
83770;DHT22;73763;48.936;9.300;2024-01-30T10:31:03;16.00;47.50
83770;DHT22;73763;48.936;9.300;2024-01-30T10:33:30;15.60;48.30
83770;DHT22;73763;48.936;9.300;2024-01-30T10:36:01;15.10;49.90
83770;DHT22;73763;48.936;9.300;2024-01-30T10:38:32;14.60;51.50
83770;DHT22;73763;48.936;9.300;2024-01-30T10:41:01;14.20;52.90
83770;DHT22;73763;48.936;9.300;2024-01-30T10:43:32;13.90;54.60
83770;DHT22;73763;48.936;9.300;2024-01-30T10:46:16;13.40;55.90
83770;DHT22;73763;48.936;9.300;2024-01-30T10:48:43;13.10;57.40
83770;DHT22;73763;48.936;9.300;2024-01-30T10:51:13;12.70;58.90
83770;DHT22;73763;48.936;9.300;2024-01-30T10:53:39;12.50;59.00
83770;DHT22;73763;48.936;9.300;2024-01-30T10:56:05;12.50;59.10
83770;DHT22;73763;48.936;9.300;2024-01-30T10:58:31;12.50;59.50
83770;DHT22;73763;48.936;9.300;2024-01-30T11:00:57;12.60;59.90
83770;DHT22;73763;48.936;9.300;2024-01-30T11:03:24;12.80;58.90
83770;DHT22;73763;48.936;9.300;2024-01-30T11:05:50;12.80;58.90
83770;DHT22;73763;48.936;9.300;2024-01-30T11:08:23;12.90;60.00
83770;DHT22;73763;48.936;9.300;2024-01-30T11:10:49;13.10;58.70
83770;DHT22;73763;48.936;9.300;2024-01-30T11:13:15;13.20;58.70
83770;DHT22;73763;48.936;9.300;2024-01-30T11:15:41;13.10;57.80
83770;DHT22;73763;48.936;9.300;2024-01-30T11:18:06;13.20;57.90
83770;DHT22;73763;48.936;9.300;2024-01-30T11:20:32;13.20;58.10
83770;DHT22;73763;48.936;9.300;2024-01-30T11:22:59;13.20;58.10
83770;DHT22;73763;48.936;9.300;2024-01-30T11:25:25;13.10;59.10
83770;DHT22;73763;48.936;9.300;2024-01-30T11:27:55;13.20;60.90
83770;DHT22;73763;48.936;9.300;2024-01-30T11:30:30;13.20;61.70
83770;DHT22;73763;48.936;9.300;2024-01-30T11:35:27;13.40;63.10
83770;DHT22;73763;48.936;9.300;2024-01-30T11:37:54;13.40;62.60
83770;DHT22;73763;48.936;9.300;2024-01-30T11:40:23;13.50;60.90
83770;DHT22;73763;48.936;9.300;2024-01-30T11:42:49;13.60;61.50
83770;DHT22;73763;48.936;9.300;2024-01-30T11:45:15;13.70;62.20
83770;DHT22;73763;48.936;9.300;2024-01-30T11:47:40;13.80;61.20
83770;DHT22;73763;48.936;9.300;2024-01-30T11:50:06;13.70;61.80
83770;DHT22;73763;48.936;9.300;2024-01-30T11:52:35;13.80;63.10
83770;DHT22;73763;48.936;9.300;2024-01-30T11:55:01;13.80;62.40
83770;DHT22;73763;48.936;9.300;2024-01-30T11:57:27;13.70;60.90
83770;DHT22;73763;48.936;9.300;2024-01-30T11:59:52;13.60;62.10
83770;DHT22;73763;48.936;9.300;2024-01-30T12:02:18;13.70;62.90
83770;DHT22;73763;48.936;9.300;2024-01-30T12:04:44;13.70;60.20
83770;DHT22;73763;48.936;9.300;2024-01-30T12:07:10;13.80;60.20
83770;DHT22;73763;48.936;9.300;2024-01-30T12:09:36;13.80;59.80
83770;DHT22;73763;48.936;9.300;2024-01-30T12:12:02;13.90;60.90
83770;DHT22;73763;48.936;9.300;2024-01-30T12:14:27;14.00;61.20
83770;DHT22;73763;48.936;9.300;2024-01-30T12:16:53;14.10;60.40
83770;DHT22;73763;48.936;9.300;2024-01-30T12:19:24;13.90;60.00
83770;DHT22;73763;48.936;9.300;2024-01-30T12:21:57;13.80;60.60
83770;DHT22;73763;48.936;9.300;2024-01-30T12:24:22;13.80;60.40
83770;DHT22;73763;48.936;9.300;2024-01-30T12:26:48;13.70;60.00
83770;DHT22;73763;48.936;9.300;2024-01-30T12:29:14;13.70;59.80
83770;DHT22;73763;48.936;9.300;2024-01-30T12:31:42;13.70;60.50
83770;DHT22;73763;48.936;9.300;2024-01-30T12:34:08;13.90;60.20
83770;DHT22;73763;48.936;9.300;2024-01-30T12:36:34;13.80;60.90
83770;DHT22;73763;48.936;9.300;2024-01-30T12:39:01;13.90;61.20
83770;DHT22;73763;48.936;9.300;2024-01-30T12:41:26;14.00;61.60
83770;DHT22;73763;48.936;9.300;2024-01-30T12:43:52;14.00;61.50
83770;DHT22;73763;48.936;9.300;2024-01-30T12:46:17;14.10;60.70
83770;DHT22;73763;48.936;9.300;2024-01-30T12:48:43;14.10;60.40
83770;DHT22;73763;48.936;9.300;2024-01-30T12:51:08;14.00;58.40
83770;DHT22;73763;48.936;9.300;2024-01-30T12:53:34;14.00;60.50
83770;DHT22;73763;48.936;9.300;2024-01-30T12:55:59;14.20;60.60
83770;DHT22;73763;48.936;9.300;2024-01-30T12:58:25;14.30;62.20
83770;DHT22;73763;48.936;9.300;2024-01-30T13:00:51;14.30;60.00
83770;DHT22;73763;48.936;9.300;2024-01-30T13:03:16;14.50;60.00
83770;DHT22;73763;48.936;9.300;2024-01-30T13:05:42;14.90;57.90
83770;DHT22;73763;48.936;9.300;2024-01-30T13:08:08;15.50;56.20
83770;DHT22;73763;48.936;9.300;2024-01-30T13:10:33;15.80;53.20
83770;DHT22;73763;48.936;9.300;2024-01-30T13:12:59;16.20;53.50
83770;DHT22;73763;48.936;9.300;2024-01-30T13:15:24;16.50;52.80
83770;DHT22;73763;48.936;9.300;2024-01-30T13:17:50;16.70;53.60
83770;DHT22;73763;48.936;9.300;2024-01-30T13:20:15;16.70;51.60
83770;DHT22;73763;48.936;9.300;2024-01-30T13:22:41;16.50;52.40
83770;DHT22;73763;48.936;9.300;2024-01-30T13:25:06;16.20;52.00
83770;DHT22;73763;48.936;9.300;2024-01-30T13:27:32;16.10;52.90
83770;DHT22;73763;48.936;9.300;2024-01-30T13:29:57;16.40;53.10
83770;DHT22;73763;48.936;9.300;2024-01-30T13:32:23;16.70;51.50
83770;DHT22;73763;48.936;9.300;2024-01-30T13:34:49;17.40;49.40
83770;DHT22;73763;48.936;9.300;2024-01-30T13:37:14;17.90;48.40
83770;DHT22;73763;48.936;9.300;2024-01-30T13:39:40;18.20;47.30
83770;DHT22;73763;48.936;9.300;2024-01-30T13:42:05;18.00;46.40
83770;DHT22;73763;48.936;9.300;2024-01-30T13:44:31;17.90;46.10
83770;DHT22;73763;48.936;9.300;2024-01-30T13:46:56;17.50;46.50
83770;DHT22;73763;48.936;9.300;2024-01-30T13:49:22;17.20;47.10
83770;DHT22;73763;48.936;9.300;2024-01-30T13:51:47;16.70;48.40
83770;DHT22;73763;48.936;9.300;2024-01-30T13:54:13;16.30;49.60
83770;DHT22;73763;48.936;9.300;2024-01-30T13:56:38;15.70;50.60
83770;DHT22;73763;48.936;9.300;2024-01-30T13:59:04;15.20;53.00
83770;DHT22;73763;48.936;9.300;2024-01-30T14:01:30;14.90;54.30
83770;DHT22;73763;48.936;9.300;2024-01-30T14:03:56;14.80;54.80
83770;DHT22;73763;48.936;9.300;2024-01-30T14:06:21;14.90;55.70
83770;DHT22;73763;48.936;9.300;2024-01-30T14:08:47;14.90;56.70
83770;DHT22;73763;48.936;9.300;2024-01-30T14:11:13;14.80;55.70
83770;DHT22;73763;48.936;9.300;2024-01-30T14:13:38;14.70;56.20
83770;DHT22;73763;48.936;9.300;2024-01-30T14:16:04;14.40;56.60
83770;DHT22;73763;48.936;9.300;2024-01-30T14:18:30;14.30;56.70
83770;DHT22;73763;48.936;9.300;2024-01-30T14:20:55;14.10;57.40
83770;DHT22;73763;48.936;9.300;2024-01-30T14:23:21;14.00;57.80
83770;DHT22;73763;48.936;9.300;2024-01-30T14:25:46;13.80;59.10
83770;DHT22;73763;48.936;9.300;2024-01-30T14:28:12;13.70;59.60
83770;DHT22;73763;48.936;9.300;2024-01-30T14:30:37;13.50;59.40
83770;DHT22;73763;48.936;9.300;2024-01-30T14:33:03;13.40;60.90
83770;DHT22;73763;48.936;9.300;2024-01-30T14:35:29;13.30;61.20
83770;DHT22;73763;48.936;9.300;2024-01-30T14:37:54;13.20;61.60
83770;DHT22;73763;48.936;9.300;2024-01-30T14:40:20;13.10;63.30
83770;DHT22;73763;48.936;9.300;2024-01-30T14:42:46;13.10;62.90
83770;DHT22;73763;48.936;9.300;2024-01-30T14:45:11;13.00;64.40
83770;DHT22;73763;48.936;9.300;2024-01-30T14:47:37;12.90;64.00
83770;DHT22;73763;48.936;9.300;2024-01-30T14:50:04;12.70;64.30
83770;DHT22;73763;48.936;9.300;2024-01-30T14:52:29;12.70;64.90
83770;DHT22;73763;48.936;9.300;2024-01-30T14:54:55;12.50;64.50
83770;DHT22;73763;48.936;9.300;2024-01-30T14:57:20;12.50;64.20
83770;DHT22;73763;48.936;9.300;2024-01-30T14:59:46;12.40;65.30
83770;DHT22;73763;48.936;9.300;2024-01-30T15:02:12;12.30;67.70
83770;DHT22;73763;48.936;9.300;2024-01-30T15:04:38;12.20;67.80
83770;DHT22;73763;48.936;9.300;2024-01-30T15:07:03;12.20;66.60
83770;DHT22;73763;48.936;9.300;2024-01-30T15:09:29;12.10;68.50
83770;DHT22;73763;48.936;9.300;2024-01-30T15:11:54;12.00;69.30
83770;DHT22;73763;48.936;9.300;2024-01-30T15:14:20;11.90;69.20
83770;DHT22;73763;48.936;9.300;2024-01-30T15:16:45;11.70;71.10
83770;DHT22;73763;48.936;9.300;2024-01-30T15:19:11;11.50;73.30
83770;DHT22;73763;48.936;9.300;2024-01-30T15:21:36;11.30;74.60
83770;DHT22;73763;48.936;9.300;2024-01-30T15:24:03;11.10;76.20
83770;DHT22;73763;48.936;9.300;2024-01-30T15:26:29;11.00;77.00
83770;DHT22;73763;48.936;9.300;2024-01-30T15:28:54;10.90;77.50
83770;DHT22;73763;48.936;9.300;2024-01-30T15:31:20;10.80;78.30
83770;DHT22;73763;48.936;9.300;2024-01-30T15:33:46;10.70;79.00